Time;durP1;ratioP1;P1;durP2;ratioP2;P2;SDS_P1;SDS_P2;PMS_P1;PMS_P2;Temp;Humidity;BMP_temperature;BMP_pressure;BME280_temperature;BME280_humidity;BME280_pressure;Samples;Min_cycle;Max_cycle;Signal;HPM_P1;HPM_P2
2022/07/11 00:00:10;;;;;;;0.08;0.08;;;15.60;99.90;;;;;;5052545;28;20045;-83
2022/07/11 00:02:39;;;;;;;0.10;0.03;;;15.60;99.90;;;;;;5069303;28;20120;-83
2022/07/11 00:05:07;;;;;;;0.00;0.00;;;15.60;99.90;;;;;;5069156;28;20115;-84
2022/07/11 00:07:34;;;;;;;0.00;0.00;;;15.60;99.90;;;;;;5068960;28;20069;-81
2022/07/11 00:10:02;;;;;;;0.40;0.10;;;15.60;99.90;;;;;;5068920;28;20041;-83
2022/07/11 00:12:29;;;;;;;0.00;0.00;;;15.60;99.90;;;;;;5069318;28;20037;-81
2022/07/11 00:14:56;;;;;;;0.00;0.00;;;15.60;99.90;;;;;;5052343;28;20379;-81
2022/07/11 00:17:23;;;;;;;0.00;0.00;;;15.60;99.90;;;;;;5071841;28;20041;-83
2022/07/11 00:19:50;;;;;;;0.13;0.13;;;15.60;99.90;;;;;;5039867;28;20504;-81
2022/07/11 00:22:17;;;;;;;0.05;0.05;;;15.60;99.90;;;;;;5072824;28;20037;-81
2022/07/11 00:24:43;;;;;;;0.00;0.00;;;15.50;99.90;;;;;;5040307;28;20045;-81
2022/07/11 00:27:10;;;;;;;0.10;0.08;;;15.50;99.90;;;;;;5055939;28;20406;-81
2022/07/11 00:29:37;;;;;;;0.00;0.00;;;15.50;99.90;;;;;;5056678;28;20036;-83
2022/07/11 00:32:04;;;;;;;0.00;0.00;;;15.50;99.90;;;;;;5056039;28;20041;-83
2022/07/11 00:34:31;;;;;;;0.00;0.00;;;15.50;99.90;;;;;;5056096;28;20041;-81
2022/07/11 00:36:58;;;;;;;0.00;0.00;;;15.50;99.90;;;;;;5055937;28;20056;-81
2022/07/11 00:39:24;;;;;;;0.00;0.00;;;15.50;99.90;;;;;;5040370;28;20037;-81
2022/07/11 00:41:52;;;;;;;0.03;0.03;;;15.50;99.90;;;;;;5039903;28;20552;-82
2022/07/11 00:44:19;;;;;;;0.00;0.00;;;15.50;99.90;;;;;;5072684;28;20048;-80
2022/07/11 00:46:45;;;;;;;0.03;0.03;;;15.50;99.90;;;;;;5056163;28;20409;-81
2022/07/11 00:49:12;;;;;;;0.22;0.10;;;15.50;99.90;;;;;;5039350;28;20387;-81
2022/07/11 00:51:39;;;;;;;0.00;0.00;;;15.50;99.90;;;;;;5055470;28;20080;-80
2022/07/11 00:54:09;;;;;;;0.00;0.00;;;15.50;99.90;;;;;;5039069;28;20044;-81
2022/07/11 00:56:36;;;;;;;0.10;0.10;;;15.50;99.90;;;;;;5072107;28;20451;-81
2022/07/11 00:59:03;;;;;;;0.20;0.10;;;15.50;99.90;;;;;;5055661;28;20132;-83
2022/07/11 01:01:32;;;;;;;0.00;0.00;;;15.40;99.90;;;;;;5072139;28;20037;-81
2022/07/11 01:03:59;;;;;;;0.30;0.20;;;15.50;99.90;;;;;;5088036;28;20033;-81
2022/07/11 01:06:26;;;;;;;0.10;0.10;;;15.40;99.90;;;;;;5055191;28;20048;-81
2022/07/11 01:08:53;;;;;;;0.15;0.15;;;15.40;99.90;;;;;;5055832;28;20120;-83
2022/07/11 01:11:20;;;;;;;0.03;0.03;;;15.40;99.90;;;;;;5055773;28;20120;-83
2022/07/11 01:13:47;;;;;;;0.08;0.08;;;15.30;99.90;;;;;;5055556;28;20040;-81
2022/07/11 01:16:23;;;;;;;0.00;0.00;;;15.40;99.90;;;;;;5038749;28;20049;-82
2022/07/11 01:18:52;;;;;;;0.00;0.00;;;15.40;99.90;;;;;;5071912;28;20406;-83
2022/07/11 01:21:27;;;;;;;0.00;0.00;;;15.40;99.90;;;;;;5071649;28;20868;-83
2022/07/11 01:23:56;;;;;;;0.10;0.00;;;15.30;99.90;;;;;;5088610;28;20123;-81
2022/07/11 01:26:24;;;;;;;0.03;0.00;;;15.30;99.90;;;;;;5055274;28;20409;-81
2022/07/11 01:28:52;;;;;;;0.00;0.00;;;15.30;99.90;;;;;;5054777;28;20037;-83
2022/07/11 01:31:20;;;;;;;0.10;0.10;;;15.30;99.90;;;;;;5054978;28;20037;-80
2022/07/11 01:33:46;;;;;;;0.32;0.10;;;15.30;99.90;;;;;;5088595;28;20171;-83
2022/07/11 01:36:13;;;;;;;0.00;0.00;;;15.20;99.90;;;;;;5054860;28;20049;-84
2022/07/11 01:38:40;;;;;;;0.22;0.10;;;15.20;99.90;;;;;;5055114;28;20414;-81
2022/07/11 01:41:07;;;;;;;0.20;0.10;;;15.20;99.90;;;;;;5055111;28;20039;-83
2022/07/11 01:43:34;;;;;;;0.10;0.10;;;15.20;99.90;;;;;;5071360;28;20063;-83
2022/07/11 01:46:01;;;;;;;0.08;0.08;;;15.20;99.90;;;;;;5054796;28;20041;-81
2022/07/11 01:48:28;;;;;;;0.00;0.00;;;15.10;99.90;;;;;;5085408;28;20044;-81
2022/07/11 01:50:54;;;;;;;0.00;0.00;;;15.10;99.90;;;;;;5087901;28;20048;-83
2022/07/11 01:53:21;;;;;;;0.10;0.00;;;15.10;99.90;;;;;;5071800;28;20071;-81
2022/07/11 01:55:48;;;;;;;0.43;0.17;;;15.10;99.90;;;;;;5074893;28;20041;-84
2022/07/11 01:58:14;;;;;;;0.20;0.15;;;15.10;99.90;;;;;;5066004;28;20119;-82
2022/07/11 02:00:42;;;;;;;0.00;0.00;;;15.10;99.90;;;;;;5058423;28;20039;-81
2022/07/11 02:03:09;;;;;;;0.00;0.00;;;15.10;99.90;;;;;;5072489;28;20067;-81
2022/07/11 02:05:38;;;;;;;0.05;0.00;;;15.00;99.90;;;;;;5088619;28;20040;-81
2022/07/11 02:08:12;;;;;;;0.00;0.00;;;15.00;99.90;;;;;;5086120;28;20465;-83
2022/07/11 02:10:42;;;;;;;0.00;0.00;;;15.00;99.90;;;;;;5089630;28;20473;-84
2022/07/11 02:13:09;;;;;;;0.13;0.10;;;15.00;99.90;;;;;;5070195;28;20076;-83
2022/07/11 02:15:36;;;;;;;0.05;0.05;;;15.00;99.90;;;;;;5070999;28;20063;-84
2022/07/11 02:18:03;;;;;;;0.00;0.00;;;15.00;99.90;;;;;;5070661;28;20052;-83
2022/07/11 02:20:30;;;;;;;0.00;0.00;;;15.00;99.90;;;;;;5082285;28;20048;-84
2022/07/11 02:22:58;;;;;;;0.00;0.00;;;15.00;99.90;;;;;;5054307;28;20041;-82
2022/07/11 02:25:25;;;;;;;0.00;0.00;;;14.90;99.90;;;;;;5060392;28;20044;-81
2022/07/11 02:27:51;;;;;;;0.00;0.00;;;15.00;99.90;;;;;;5107373;28;20433;-81
2022/07/11 02:30:18;;;;;;;0.10;0.10;;;15.00;99.90;;;;;;5106938;28;20040;-84
2022/07/11 02:32:45;;;;;;;0.10;0.10;;;15.00;99.90;;;;;;5052036;28;20036;-84
2022/07/11 02:35:12;;;;;;;0.00;0.00;;;15.00;99.90;;;;;;5046572;28;20040;-82
2022/07/11 02:37:38;;;;;;;0.10;0.10;;;15.00;99.90;;;;;;5093804;28;20047;-82
2022/07/11 02:40:06;;;;;;;0.00;0.00;;;15.00;99.90;;;;;;5092576;28;20119;-83
2022/07/11 02:42:33;;;;;;;0.00;0.00;;;15.00;99.90;;;;;;5060928;28;20032;-82
2022/07/11 02:44:59;;;;;;;0.13;0.08;;;15.00;99.90;;;;;;5077433;28;20089;-84
2022/07/11 02:47:26;;;;;;;0.13;0.10;;;15.00;99.90;;;;;;5060617;28;20055;-84
2022/07/11 02:49:53;;;;;;;0.00;0.00;;;15.00;99.90;;;;;;5060740;28;20408;-82
2022/07/11 02:52:19;;;;;;;0.13;0.10;;;15.00;99.90;;;;;;5076840;28;20126;-84
2022/07/11 02:54:46;;;;;;;0.00;0.00;;;15.00;99.90;;;;;;5077057;28;20043;-82
2022/07/11 02:57:12;;;;;;;0.17;0.10;;;15.00;99.90;;;;;;5093678;28;20122;-84
2022/07/11 02:59:39;;;;;;;0.00;0.00;;;15.00;99.90;;;;;;5060736;28;20040;-82
2022/07/11 03:02:06;;;;;;;0.10;0.10;;;15.00;99.90;;;;;;5076759;28;20058;-81
2022/07/11 03:04:33;;;;;;;0.00;0.00;;;15.00;99.90;;;;;;5060238;28;20135;-81
2022/07/11 03:07:00;;;;;;;0.05;0.05;;;15.00;99.90;;;;;;5093387;28;20070;-82
2022/07/11 03:09:26;;;;;;;0.20;0.17;;;15.00;99.90;;;;;;5093096;28;20036;-84
2022/07/11 03:11:53;;;;;;;0.00;0.00;;;15.00;99.90;;;;;;5075622;28;20054;-84
2022/07/11 03:14:20;;;;;;;0.00;0.00;;;15.00;99.90;;;;;;5056257;28;20490;-81
2022/07/11 03:16:46;;;;;;;0.00;0.00;;;15.00;99.90;;;;;;5056420;28;20089;-81
2022/07/11 03:19:13;;;;;;;0.00;0.00;;;15.00;99.90;;;;;;5072659;28;20047;-82
2022/07/11 03:21:40;;;;;;;0.30;0.15;;;15.00;99.90;;;;;;5039939;28;20127;-84
2022/07/11 03:24:06;;;;;;;0.05;0.05;;;15.00;99.90;;;;;;5072528;28;20036;-84
2022/07/11 03:26:33;;;;;;;0.10;0.10;;;15.00;99.90;;;;;;5055910;28;20030;-81
2022/07/11 03:29:00;;;;;;;0.00;0.00;;;15.00;99.90;;;;;;5056174;28;20067;-84
2022/07/11 03:31:26;;;;;;;0.00;0.00;;;15.00;99.90;;;;;;5039459;28;20039;-84
2022/07/11 03:33:53;;;;;;;0.08;0.08;;;15.00;99.90;;;;;;5039979;28;20127;-82
2022/07/11 03:36:20;;;;;;;0.00;0.00;;;15.00;99.90;;;;;;5039259;28;20452;-84
2022/07/11 03:38:47;;;;;;;0.22;0.20;;;15.00;99.90;;;;;;5039981;28;20409;-81
2022/07/11 03:41:13;;;;;;;0.00;0.00;;;15.00;99.90;;;;;;5072538;28;20040;-82
2022/07/11 03:43:40;;;;;;;0.00;0.00;;;15.00;99.90;;;;;;5040341;28;20461;-81
2022/07/11 03:46:07;;;;;;;0.20;0.10;;;15.00;99.90;;;;;;5040247;28;20070;-82
2022/07/11 03:48:34;;;;;;;0.00;0.00;;;15.00;99.90;;;;;;5056482;28;20756;-84
2022/07/11 03:51:00;;;;;;;0.15;0.10;;;15.00;99.90;;;;;;5073580;28;20072;-85
2022/07/11 03:53:27;;;;;;;0.10;0.10;;;15.00;99.90;;;;;;5076585;28;20127;-84
2022/07/11 03:55:54;;;;;;;0.00;0.00;;;15.00;99.90;;;;;;5076962;28;20106;-85
2022/07/11 03:58:21;;;;;;;0.10;0.10;;;15.00;99.90;;;;;;5043794;28;20085;-82
2022/07/11 04:00:47;;;;;;;0.05;0.05;;;15.00;99.90;;;;;;5044122;28;20071;-85
2022/07/11 04:03:14;;;;;;;0.08;0.08;;;15.00;99.90;;;;;;5043906;28;20033;-85
2022/07/11 04:05:41;;;;;;;0.00;0.00;;;15.00;99.90;;;;;;5043750;28;20109;-82
2022/07/11 04:08:07;;;;;;;0.00;0.00;;;15.00;99.90;;;;;;5044039;28;20116;-85
2022/07/11 04:10:34;;;;;;;0.00;0.00;;;15.00;99.90;;;;;;5059712;28;20083;-83
2022/07/11 04:13:01;;;;;;;0.03;0.03;;;15.10;99.90;;;;;;5093114;28;20519;-85
2022/07/11 04:15:28;;;;;;;0.00;0.00;;;15.10;99.90;;;;;;5060066;28;20048;-85
2022/07/11 04:17:54;;;;;;;0.00;0.00;;;15.10;99.90;;;;;;5043583;28;20036;-81
2022/07/11 04:20:21;;;;;;;0.00;0.00;;;15.10;99.90;;;;;;5092884;28;20046;-82
2022/07/11 04:22:49;;;;;;;0.00;0.00;;;15.10;99.90;;;;;;5076307;28;20051;-82
2022/07/11 04:25:15;;;;;;;0.00;0.00;;;15.10;99.90;;;;;;5043864;28;20123;-84
2022/07/11 04:27:42;;;;;;;0.03;0.03;;;15.10;99.90;;;;;;5076596;28;20136;-82
2022/07/11 04:30:09;;;;;;;0.00;0.00;;;15.10;99.90;;;;;;5043725;28;20048;-85
2022/07/11 04:32:36;;;;;;;0.00;0.00;;;15.10;99.90;;;;;;5059758;28;20443;-82
2022/07/11 04:35:03;;;;;;;0.00;0.00;;;15.20;99.90;;;;;;5076074;28;20036;-84
2022/07/11 04:37:30;;;;;;;0.00;0.00;;;15.10;99.90;;;;;;5045449;28;20044;-82
2022/07/11 04:39:57;;;;;;;0.00;0.00;;;15.20;99.90;;;;;;5040417;28;20117;-81
2022/07/11 04:42:24;;;;;;;0.30;0.15;;;15.10;99.90;;;;;;5059287;28;20033;-82
2022/07/11 04:44:51;;;;;;;0.00;0.00;;;15.10;99.90;;;;;;5076061;28;20044;-82
2022/07/11 04:47:19;;;;;;;0.00;0.00;;;15.10;99.90;;;;;;5059426;28;20044;-85
2022/07/11 04:49:46;;;;;;;0.00;0.00;;;15.10;99.90;;;;;;5043128;28;20560;-84
2022/07/11 04:52:13;;;;;;;0.00;0.00;;;15.20;99.90;;;;;;5052002;28;20033;-82
2022/07/11 04:54:40;;;;;;;0.00;0.00;;;15.10;99.90;;;;;;5055355;28;20044;-85
2022/07/11 04:57:07;;;;;;;0.00;0.00;;;15.20;99.90;;;;;;5023157;28;20127;-82
2022/07/11 04:59:34;;;;;;;0.00;0.00;;;15.20;99.90;;;;;;5039642;28;20037;-82
2022/07/11 05:02:00;;;;;;;0.00;0.00;;;15.30;99.90;;;;;;5022968;28;20386;-85
2022/07/11 05:04:27;;;;;;;0.00;0.00;;;15.30;99.90;;;;;;5037934;28;20052;-85
2022/07/11 05:06:54;;;;;;;0.00;0.00;;;15.30;99.90;;;;;;5055368;28;20101;-85
2022/07/11 05:09:20;;;;;;;0.00;0.00;;;15.40;99.90;;;;;;5039050;28;20041;-85
2022/07/11 05:11:47;;;;;;;0.03;0.03;;;15.40;99.90;;;;;;5022864;28;20052;-82
2022/07/11 05:14:13;;;;;;;0.00;0.00;;;15.50;99.90;;;;;;5024279;28;20048;-82
2022/07/11 05:16:40;;;;;;;0.00;0.00;;;15.50;99.90;;;;;;5022324;28;20460;-81
2022/07/11 05:19:07;;;;;;;0.00;0.00;;;15.50;99.90;;;;;;5022769;28;20036;-82
2022/07/11 05:21:34;;;;;;;0.00;0.00;;;15.50;99.90;;;;;;5055396;28;20048;-85
2022/07/11 05:24:01;;;;;;;0.00;0.00;;;15.50;99.90;;;;;;5032570;28;20485;-82
2022/07/11 05:26:27;;;;;;;0.00;0.00;;;15.50;99.90;;;;;;5075028;28;20559;-84
2022/07/11 05:28:54;;;;;;;0.00;0.00;;;15.50;99.90;;;;;;5058728;28;20037;-81
2022/07/11 05:31:21;;;;;;;0.00;0.00;;;15.60;99.90;;;;;;5058587;28;20094;-85
2022/07/11 05:33:48;;;;;;;0.00;0.00;;;15.70;99.90;;;;;;5030675;28;20395;-82
2022/07/11 05:36:15;;;;;;;0.00;0.00;;;15.70;99.90;;;;;;5058262;28;20110;-82
2022/07/11 05:38:41;;;;;;;0.10;0.00;;;15.70;99.90;;;;;;5048805;28;20140;-82
2022/07/11 05:41:08;;;;;;;0.00;0.00;;;15.70;99.90;;;;;;5065013;28;20040;-82
2022/07/11 05:43:35;;;;;;;0.03;0.03;;;15.80;99.90;;;;;;5058252;28;20072;-85
2022/07/11 05:46:05;;;;;;;0.00;0.00;;;15.80;99.90;;;;;;5028691;28;20044;-85
2022/07/11 05:48:32;;;;;;;0.00;0.00;;;15.80;99.90;;;;;;5041853;28;20122;-82
2022/07/11 05:50:58;;;;;;;0.00;0.00;;;15.80;99.90;;;;;;5072270;28;20098;-85
2022/07/11 05:53:25;;;;;;;0.10;0.10;;;15.90;99.90;;;;;;5062317;28;20502;-82
2022/07/11 05:55:52;;;;;;;0.00;0.00;;;15.90;99.90;;;;;;5021922;28;20056;-82
2022/07/11 05:58:18;;;;;;;0.00;0.00;;;16.00;99.90;;;;;;5025390;28;20032;-81
2022/07/11 06:00:45;;;;;;;0.00;0.00;;;15.90;99.90;;;;;;5041396;28;20178;-85
2022/07/11 06:03:12;;;;;;;0.00;0.00;;;16.00;99.90;;;;;;5041417;28;20098;-82
2022/07/11 06:05:38;;;;;;;0.00;0.00;;;16.00;99.90;;;;;;5023974;28;20052;-86
2022/07/11 06:10:51;;;;;;;0.00;0.00;;;16.00;99.90;;;;;;5057171;28;20068;-82
2022/07/11 06:13:18;;;;;;;0.00;0.00;;;16.00;99.90;;;;;;5022950;28;20060;-87
2022/07/11 06:15:45;;;;;;;0.00;0.00;;;16.10;99.90;;;;;;5021812;28;20486;-88
2022/07/11 06:18:11;;;;;;;0.00;0.00;;;16.10;99.90;;;;;;5055195;28;20443;-82
2022/07/11 06:20:38;;;;;;;0.05;0.05;;;16.10;99.90;;;;;;5031695;28;20040;-87
2022/07/11 06:23:06;;;;;;;0.00;0.00;;;16.20;99.90;;;;;;5038144;28;20036;-87
2022/07/11 06:25:33;;;;;;;0.00;0.00;;;16.20;99.90;;;;;;5041123;28;20044;-82
2022/07/11 06:28:01;;;;;;;0.00;0.00;;;16.20;99.90;;;;;;5054122;28;20041;-82
2022/07/11 06:30:28;;;;;;;0.00;0.00;;;16.30;99.90;;;;;;5047362;28;20131;-83
2022/07/11 06:32:54;;;;;;;0.00;0.00;;;16.30;99.90;;;;;;5054975;28;20172;-86
2022/07/11 06:35:21;;;;;;;0.00;0.00;;;16.40;99.90;;;;;;5055265;28;20049;-82
2022/07/11 06:37:48;;;;;;;0.00;0.00;;;16.40;99.90;;;;;;5072273;28;20055;-87
2022/07/11 06:40:17;;;;;;;0.00;0.00;;;16.40;99.90;;;;;;5079127;28;20041;-82
2022/07/11 06:42:44;;;;;;;0.00;0.00;;;16.40;99.90;;;;;;5073766;28;20033;-87
2022/07/11 06:45:11;;;;;;;0.00;0.00;;;16.40;99.90;;;;;;5073978;28;20552;-82
2022/07/11 06:47:38;;;;;;;0.00;0.00;;;16.40;99.90;;;;;;5037459;28;20132;-83
2022/07/11 06:50:05;;;;;;;0.00;0.00;;;16.50;99.90;;;;;;5053662;28;20414;-82
2022/07/11 06:52:33;;;;;;;0.00;0.00;;;16.50;99.90;;;;;;5038143;28;20043;-82
2022/07/11 06:54:59;;;;;;;0.00;0.00;;;16.70;99.90;;;;;;5086529;28;20052;-86
2022/07/11 06:57:26;;;;;;;0.05;0.00;;;17.00;99.90;;;;;;5053508;28;20850;-82
2022/07/11 06:59:53;;;;;;;0.00;0.00;;;17.10;99.90;;;;;;5084414;28;20039;-85
2022/07/11 07:02:20;;;;;;;0.00;0.00;;;17.40;99.90;;;;;;5056308;28;20033;-82
2022/07/11 07:04:46;;;;;;;0.00;0.00;;;17.70;99.90;;;;;;5072001;28;20508;-82
2022/07/11 07:07:14;;;;;;;0.00;0.00;;;17.70;99.90;;;;;;5036948;28;20041;-84
2022/07/11 07:09:41;;;;;;;0.00;0.00;;;17.70;99.90;;;;;;5037293;28;20544;-82
2022/07/11 07:12:08;;;;;;;0.00;0.00;;;17.70;99.90;;;;;;5051864;28;20037;-82
2022/07/11 07:14:34;;;;;;;0.00;0.00;;;17.60;99.90;;;;;;5079099;28;20102;-83
2022/07/11 07:17:01;;;;;;;0.00;0.00;;;17.50;99.90;;;;;;5055484;28;20128;-84
2022/07/11 07:19:28;;;;;;;0.00;0.00;;;17.40;99.90;;;;;;5102843;28;20033;-82
2022/07/11 07:21:54;;;;;;;0.00;0.00;;;17.30;99.90;;;;;;5040546;28;20495;-82
2022/07/11 07:24:21;;;;;;;0.00;0.00;;;17.20;99.90;;;;;;5033022;28;20069;-85
2022/07/11 07:26:48;;;;;;;0.00;0.00;;;17.10;99.90;;;;;;5031989;28;20243;-85
2022/07/11 07:29:14;;;;;;;0.00;0.00;;;17.10;99.90;;;;;;5036158;28;20068;-82
2022/07/11 07:31:41;;;;;;;0.00;0.00;;;17.10;99.90;;;;;;5061435;28;20040;-85
2022/07/11 07:34:08;;;;;;;0.00;0.00;;;17.10;99.90;;;;;;5072395;28;20440;-82
2022/07/11 07:36:36;;;;;;;0.08;0.08;;;17.20;99.90;;;;;;5056393;28;20055;-85
2022/07/11 07:39:03;;;;;;;0.00;0.00;;;17.20;99.90;;;;;;5082690;28;20036;-81
2022/07/11 07:41:29;;;;;;;0.00;0.00;;;17.10;99.90;;;;;;5076331;28;20032;-84
2022/07/11 07:43:56;;;;;;;0.00;0.00;;;17.10;99.90;;;;;;5092050;28;20089;-85
2022/07/11 07:46:23;;;;;;;0.05;0.00;;;17.20;99.90;;;;;;5063594;28;20048;-82
2022/07/11 07:48:49;;;;;;;0.00;0.00;;;17.20;99.90;;;;;;5062484;28;20079;-84
2022/07/11 07:51:16;;;;;;;0.00;0.00;;;17.10;99.90;;;;;;5068570;28;20032;-82
2022/07/11 07:53:43;;;;;;;0.00;0.00;;;17.10;99.90;;;;;;5087640;28;20079;-81
2022/07/11 07:56:09;;;;;;;0.00;0.00;;;17.10;99.90;;;;;;5072268;28;20037;-82
2022/07/11 07:58:38;;;;;;;0.00;0.00;;;17.10;99.90;;;;;;5086102;28;20036;-83
2022/07/11 08:03:50;;;;;;;0.00;0.00;;;17.10;99.90;;;;;;5068306;28;20037;-82
2022/07/11 08:06:17;;;;;;;0.00;0.00;;;17.00;99.90;;;;;;5052102;28;20052;-84
2022/07/11 08:08:44;;;;;;;0.00;0.00;;;17.00;99.90;;;;;;5094741;28;20194;-84
2022/07/11 08:11:10;;;;;;;0.00;0.00;;;17.00;99.90;;;;;;5055440;28;20044;-81
2022/07/11 08:13:37;;;;;;;0.00;0.00;;;17.00;99.90;;;;;;5105094;28;20069;-81
2022/07/11 08:16:07;;;;;;;0.00;0.00;;;17.00;99.90;;;;;;5082872;28;20044;-81
2022/07/11 08:18:35;;;;;;;0.10;0.00;;;17.10;99.90;;;;;;5095462;28;20039;-81
2022/07/11 08:21:02;;;;;;;0.00;0.00;;;17.10;99.90;;;;;;5071742;28;20051;-84
2022/07/11 08:23:29;;;;;;;0.00;0.00;;;17.10;99.90;;;;;;5072635;28;20485;-81
2022/07/11 08:25:56;;;;;;;0.00;0.00;;;17.10;99.90;;;;;;5139279;28;20440;-81
2022/07/11 08:28:23;;;;;;;0.00;0.00;;;17.10;99.90;;;;;;5071778;28;20044;-84
2022/07/11 08:30:49;;;;;;;0.00;0.00;;;17.20;99.90;;;;;;5088557;28;20496;-81
2022/07/11 08:33:16;;;;;;;0.00;0.00;;;17.30;99.90;;;;;;5071556;28;20675;-83
2022/07/11 08:35:43;;;;;;;0.00;0.00;;;17.40;99.90;;;;;;5088254;28;20135;-81
2022/07/11 08:38:11;;;;;;;0.40;0.10;;;17.40;99.90;;;;;;5091244;28;20562;-81
2022/07/11 08:40:40;;;;;;;0.00;0.00;;;17.50;99.90;;;;;;5075509;28;20695;-84
2022/07/11 08:43:15;;;;;;;0.00;0.00;;;17.70;99.90;;;;;;5108624;28;20455;-82
2022/07/11 08:45:42;;;;;;;0.05;0.05;;;17.80;99.90;;;;;;5075532;28;20048;-81
2022/07/11 08:48:09;;;;;;;0.10;0.10;;;17.80;99.90;;;;;;5075302;28;20127;-81
2022/07/11 08:50:36;;;;;;;0.10;0.10;;;17.90;99.90;;;;;;5074869;28;20484;-81
2022/07/11 08:53:04;;;;;;;0.10;0.10;;;17.90;99.90;;;;;;5125257;28;20497;-81
2022/07/11 08:55:31;;;;;;;0.00;0.00;;;17.80;99.90;;;;;;5092108;28;20043;-84
2022/07/11 08:57:58;;;;;;;0.00;0.00;;;17.70;99.90;;;;;;5092028;28;20036;-81
2022/07/11 09:00:25;;;;;;;0.00;0.00;;;17.60;99.90;;;;;;5080735;28;20032;-84
2022/07/11 09:02:53;;;;;;;0.00;0.00;;;17.60;99.90;;;;;;5058546;28;20072;-81
2022/07/11 09:05:19;;;;;;;0.00;0.00;;;17.60;99.90;;;;;;5075030;28;20133;-83
2022/07/11 09:07:48;;;;;;;0.00;0.00;;;17.50;99.90;;;;;;5108108;28;20764;-81
2022/07/11 09:10:18;;;;;;;0.00;0.00;;;17.60;99.90;;;;;;5083024;28;20749;-83
2022/07/11 09:12:59;;;;;;;0.00;0.00;;;17.70;99.90;;;;;;5087175;28;20122;-82
2022/07/11 09:15:45;;;;;;;0.10;0.10;;;17.70;99.90;;;;;;5072597;28;20083;-86
2022/07/11 09:18:38;;;;;;;0.00;0.00;;;17.80;99.90;;;;;;5091568;28;20058;-81
2022/07/11 09:26:52;;;;;;;0.00;0.00;;;17.90;99.90;;;;;;5077185;28;20063;-82
2022/07/11 09:29:22;;;;;;;0.00;0.00;;;17.90;99.90;;;;;;5074751;28;20040;-83
2022/07/11 09:31:49;;;;;;;0.00;0.00;;;17.90;99.90;;;;;;5074922;28;20059;-81
2022/07/11 09:34:23;;;;;;;0.00;0.00;;;17.80;99.90;;;;;;5090629;28;20170;-82
2022/07/11 09:36:55;;;;;;;0.00;0.00;;;17.80;99.90;;;;;;5104491;28;20140;-84
2022/07/11 09:39:27;;;;;;;0.00;0.00;;;17.80;99.90;;;;;;5104363;28;20084;-82
2022/07/11 09:41:55;;;;;;;0.00;0.00;;;17.80;99.90;;;;;;5103944;28;20402;-83
2022/07/11 09:44:24;;;;;;;0.00;0.00;;;17.90;99.90;;;;;;5104536;28;20037;-82
2022/07/11 09:46:52;;;;;;;0.00;0.00;;;18.00;99.90;;;;;;5104485;28;20043;-82
2022/07/11 09:49:31;;;;;;;0.00;0.00;;;18.10;99.90;;;;;;5103467;28;20045;-83
2022/07/11 09:52:11;;;;;;;0.00;0.00;;;18.10;99.90;;;;;;5107206;28;20080;-83
2022/07/11 09:54:56;;;;;;;0.10;0.05;;;18.10;99.90;;;;;;5085246;28;20045;-81
2022/07/11 09:57:30;;;;;;;0.00;0.00;;;18.10;99.90;;;;;;5087939;28;20041;-84
2022/07/11 09:59:57;;;;;;;0.00;0.00;;;18.00;99.90;;;;;;5090505;28;20037;-84
2022/07/11 10:02:24;;;;;;;0.00;0.00;;;18.00;99.90;;;;;;5075270;28;20040;-81
2022/07/11 10:04:52;;;;;;;0.10;0.10;;;17.90;99.90;;;;;;5041160;28;20037;-83
2022/07/11 10:07:19;;;;;;;0.00;0.00;;;17.90;99.90;;;;;;5073974;28;20045;-83
2022/07/11 10:09:46;;;;;;;0.00;0.00;;;17.80;99.90;;;;;;5074044;28;20044;-84
2022/07/11 10:12:13;;;;;;;0.17;0.00;;;17.80;99.90;;;;;;5056925;28;20044;-84
2022/07/11 10:14:41;;;;;;;0.00;0.00;;;17.80;99.90;;;;;;5039972;28;20422;-83
2022/07/11 10:17:25;;;;;;;0.00;0.00;;;17.80;99.90;;;;;;5074053;28;20040;-83
2022/07/11 10:20:01;;;;;;;0.00;0.00;;;17.80;99.90;;;;;;5107138;28;20036;-83
2022/07/11 10:22:46;;;;;;;;;;;17.80;99.90;;;;;;5073809;28;20057;-81
2022/07/11 10:25:19;;;;;;;0.00;0.00;;;17.80;99.90;;;;;;5069607;28;19917;-81
2022/07/11 10:28:04;;;;;;;0.00;0.00;;;17.80;99.90;;;;;;5070609;28;20508;-84
2022/07/11 10:30:49;;;;;;;0.10;0.10;;;17.80;99.90;;;;;;5090384;28;20383;-83
2022/07/11 10:33:17;;;;;;;0.00;0.00;;;18.00;99.90;;;;;;5104312;28;20051;-81
2022/07/11 10:35:45;;;;;;;0.00;0.00;;;18.00;99.90;;;;;;5069858;28;20111;-84
2022/07/11 10:38:13;;;;;;;0.00;0.00;;;18.10;99.90;;;;;;5089512;28;20493;-81
2022/07/11 10:40:45;;;;;;;0.00;0.00;;;18.20;99.90;;;;;;5104297;28;20111;-84
2022/07/11 10:43:15;;;;;;;0.03;0.03;;;18.30;99.90;;;;;;5082447;28;20033;-81
2022/07/11 10:46:02;;;;;;;0.00;0.00;;;18.30;99.90;;;;;;5087335;28;20033;-84
2022/07/11 10:48:31;;;;;;;0.00;0.00;;;18.20;99.90;;;;;;5074204;28;20052;-81
2022/07/11 10:51:34;;;;;;;0.00;0.00;;;18.10;99.90;;;;;;5073084;28;20044;-82
2022/07/11 10:54:32;;;;;;;0.00;0.00;;;18.10;99.90;;;;;;5101559;28;20060;-84
2022/07/11 10:57:33;;;;;;;0.00;0.00;;;18.20;99.90;;;;;;5071474;28;20124;-84
2022/07/11 11:00:04;;;;;;;0.00;0.00;;;18.20;99.90;;;;;;5081503;28;20036;-84
2022/07/11 11:02:52;;;;;;;0.00;0.00;;;18.40;99.90;;;;;;5092102;28;20457;-82
2022/07/11 11:05:54;;;;;;;0.00;0.00;;;18.50;99.90;;;;;;5096320;28;20037;-82
2022/07/11 11:11:01;;;;;;;0.10;0.10;;;18.90;99.90;;;;;;5078741;28;20528;-83
2022/07/11 11:13:28;;;;;;;0.00;0.00;;;18.90;99.90;;;;;;5069165;28;20145;-82
2022/07/11 11:15:56;;;;;;;0.00;0.00;;;18.90;99.90;;;;;;5069030;28;20048;-82
2022/07/11 11:18:23;;;;;;;0.05;0.05;;;18.90;99.90;;;;;;5070435;28;20493;-82
2022/07/11 11:21:01;;;;;;;0.00;0.00;;;18.90;99.90;;;;;;5069806;28;20044;-82
2022/07/11 11:23:39;;;;;;;0.00;0.00;;;18.90;99.90;;;;;;5098731;28;20124;-84
2022/07/11 11:26:24;;;;;;;0.00;0.00;;;18.80;99.90;;;;;;5078091;28;20105;-82
2022/07/11 11:29:24;;;;;;;0.10;0.10;;;18.80;99.90;;;;;;5069240;28;20056;-82
2022/07/11 11:31:54;;;;;;;0.00;0.00;;;18.70;99.90;;;;;;5085524;28;20051;-84
2022/07/11 11:34:21;;;;;;;0.00;0.00;;;18.70;99.90;;;;;;5102238;28;20090;-83
2022/07/11 11:37:01;;;;;;;0.05;0.05;;;18.80;99.90;;;;;;5085393;28;20056;-82
2022/07/11 11:39:30;;;;;;;0.00;0.00;;;18.90;99.90;;;;;;5085108;28;20110;-82
2022/07/11 11:42:23;;;;;;;0.00;0.00;;;19.00;99.90;;;;;;5069029;28;20073;-82
2022/07/11 11:45:07;;;;;;;0.00;0.00;;;19.10;99.90;;;;;;5049081;28;20094;-83
2022/07/11 11:47:36;;;;;;;0.00;0.00;;;19.20;99.90;;;;;;5102121;28;20457;-84
2022/07/11 11:50:03;;;;;;;0.00;0.00;;;19.20;99.90;;;;;;5101851;28;20052;-83
2022/07/11 11:52:32;;;;;;;0.00;0.00;;;19.20;99.90;;;;;;5069284;28;20406;-82
2022/07/11 11:54:59;;;;;;;0.00;0.00;;;19.20;99.90;;;;;;5056281;28;20044;-83
2022/07/11 11:57:28;;;;;;;0.00;0.00;;;19.20;99.90;;;;;;5083607;28;20052;-82
2022/07/11 11:59:56;;;;;;;0.00;0.00;;;19.10;99.90;;;;;;5073285;28;20033;-84
2022/07/11 12:02:25;;;;;;;0.00;0.00;;;19.10;99.90;;;;;;5071974;28;20119;-83
2022/07/11 12:04:52;;;;;;;0.10;0.10;;;19.20;99.90;;;;;;5081902;28;20045;-82
2022/07/11 12:07:26;;;;;;;0.17;0.13;;;19.30;99.90;;;;;;5048845;28;20064;-85
2022/07/11 12:09:56;;;;;;;0.20;0.10;;;19.20;99.90;;;;;;5048581;28;20103;-81
2022/07/11 12:15:31;;;;;;;0.00;0.00;;;19.00;99.90;;;;;;5092402;28;20048;-81
2022/07/11 12:18:00;;;;;;;0.00;0.00;;;18.90;99.90;;;;;;5071723;28;20095;-83
2022/07/11 12:20:38;;;;;;;0.10;0.10;;;18.90;99.90;;;;;;5072354;28;20029;-81
2022/07/11 12:23:06;;;;;;;0.00;0.00;;;19.00;99.90;;;;;;5072752;28;20094;-83
2022/07/11 12:25:34;;;;;;;0.10;0.10;;;19.00;99.90;;;;;;5056284;28;20074;-83
2022/07/11 12:28:01;;;;;;;0.15;0.10;;;19.10;99.90;;;;;;5055940;28;20051;-83
2022/07/11 12:30:28;;;;;;;0.13;0.10;;;19.10;99.90;;;;;;5055838;28;20045;-84
2022/07/11 12:33:09;;;;;;;0.10;0.10;;;19.00;99.90;;;;;;5055913;28;20102;-83
2022/07/11 12:35:51;;;;;;;0.00;0.00;;;19.00;99.90;;;;;;5072440;28;20056;-83
2022/07/11 12:38:18;;;;;;;0.00;0.00;;;19.00;99.90;;;;;;5071612;28;20052;-83
2022/07/11 12:41:05;;;;;;;0.10;0.10;;;19.10;99.90;;;;;;5056327;28;20037;-83
2022/07/11 12:46:32;;;;;;;0.20;0.15;;;19.20;99.90;;;;;;5088280;28;20056;-83
2022/07/11 12:49:07;;;;;;;0.00;0.00;;;19.30;99.90;;;;;;5088882;28;20048;-81
2022/07/11 12:51:40;;;;;;;0.10;0.10;;;19.30;99.90;;;;;;5072193;28;20504;-81
2022/07/11 12:54:17;;;;;;;0.00;0.00;;;19.40;99.90;;;;;;5071601;28;20128;-82
2022/07/11 12:56:58;;;;;;;0.00;0.00;;;19.50;99.90;;;;;;5055597;28;20059;-84
2022/07/11 12:59:26;;;;;;;0.10;0.10;;;19.50;99.90;;;;;;5071338;28;20402;-83
2022/07/11 13:02:01;;;;;;;0.00;0.00;;;19.50;99.90;;;;;;5071728;28;20060;-81
2022/07/11 13:04:48;;;;;;;0.10;0.10;;;19.50;99.90;;;;;;5072006;28;20071;-83
2022/07/11 13:10:20;;;;;;;0.00;0.00;;;19.60;99.90;;;;;;5088071;28;20429;-83
2022/07/11 13:12:49;;;;;;;0.00;0.00;;;19.50;99.90;;;;;;5071782;28;20037;-81
2022/07/11 13:15:20;;;;;;;0.00;0.00;;;19.50;99.90;;;;;;5054478;28;20037;-81
2022/07/11 13:17:52;;;;;;;0.00;0.00;;;19.50;99.90;;;;;;5071529;28;20040;-81
2022/07/11 13:20:29;;;;;;;0.00;0.00;;;19.50;99.90;;;;;;5071679;28;20156;-83